Time;durP1;ratioP1;P1;durP2;ratioP2;P2;SDS_P1;SDS_P2;PMS_P1;PMS_P2;Temp;Humidity;BMP_temperature;BMP_pressure;BME280_temperature;BME280_humidity;BME280_pressure;Samples;Min_cycle;Max_cycle;Signal;HPM_P1;HPM_P2
2022/11/13 00:01:29;;;;;;;21.67;12.27;;;4.80;99.90;;;;;;4161318;28;20504;-76
2022/11/13 00:03:30;;;;;;;19.57;11.50;;;4.80;99.90;;;;;;4157060;28;20473;-77
2022/11/13 00:05:32;;;;;;;19.67;11.70;;;4.80;99.90;;;;;;4160691;28;20618;-77
2022/11/13 00:07:34;;;;;;;22.87;11.80;;;4.80;99.90;;;;;;4157506;28;20474;-77
2022/11/13 00:09:36;;;;;;;23.40;11.87;;;4.80;99.90;;;;;;4160422;28;20501;-75
2022/11/13 00:11:39;;;;;;;20.57;11.57;;;4.80;99.90;;;;;;4161216;28;20483;-77
2022/11/13 00:13:42;;;;;;;18.30;10.80;;;4.80;99.90;;;;;;4161636;28;20843;-75
2022/11/13 00:15:44;;;;;;;20.60;11.80;;;4.70;99.90;;;;;;4161037;28;20482;-77
2022/11/13 00:17:46;;;;;;;22.13;11.90;;;4.70;99.90;;;;;;4160267;28;20551;-77
2022/11/13 00:19:48;;;;;;;21.33;12.00;;;4.70;99.90;;;;;;4159614;28;21011;-77
2022/11/13 00:21:50;;;;;;;19.13;10.97;;;4.70;99.90;;;;;;4160895;28;20485;-76
2022/11/13 00:23:53;;;;;;;21.63;11.83;;;4.70;99.90;;;;;;4160264;28;20454;-77
2022/11/13 00:25:55;;;;;;;19.23;11.37;;;4.70;99.90;;;;;;4160709;28;20450;-76
2022/11/13 00:27:58;;;;;;;21.40;12.00;;;4.70;99.90;;;;;;4162215;28;20493;-76
2022/11/13 00:30:00;;;;;;;22.67;12.03;;;4.70;99.90;;;;;;4161681;28;20457;-75
2022/11/13 00:32:02;;;;;;;22.17;11.90;;;4.70;99.90;;;;;;4160729;28;21251;-77
2022/11/13 00:34:03;;;;;;;20.97;11.53;;;4.70;99.90;;;;;;4160697;28;20913;-77
2022/11/13 00:36:09;;;;;;;21.13;11.97;;;4.60;99.90;;;;;;4162812;28;20517;-78
2022/11/13 00:38:11;;;;;;;22.90;11.83;;;4.70;99.90;;;;;;4162678;28;20949;-76
2022/11/13 00:40:12;;;;;;;24.90;12.33;;;4.60;99.90;;;;;;4159999;28;20462;-77
2022/11/13 00:42:14;;;;;;;21.57;11.40;;;4.60;99.90;;;;;;4159509;28;21024;-77
2022/11/13 00:44:18;;;;;;;19.17;11.67;;;4.60;99.90;;;;;;4160860;28;20985;-76
2022/11/13 00:46:20;;;;;;;20.23;12.00;;;4.60;99.90;;;;;;4159762;28;20458;-77
2022/11/13 00:48:22;;;;;;;19.83;11.80;;;4.60;99.90;;;;;;4156873;28;20458;-77
2022/11/13 00:50:26;;;;;;;19.33;11.07;;;4.60;99.90;;;;;;4159083;28;20497;-76
2022/11/13 00:52:28;;;;;;;24.03;12.03;;;4.50;99.90;;;;;;4152337;28;20536;-76
2022/11/13 00:54:30;;;;;;;22.87;11.73;;;4.50;99.90;;;;;;4159506;28;20930;-76
2022/11/13 00:56:32;;;;;;;19.50;11.43;;;4.50;99.90;;;;;;4159869;28;20522;-77
2022/11/13 00:58:34;;;;;;;21.03;11.73;;;4.50;99.90;;;;;;4161544;28;20485;-76
2022/11/13 01:00:37;;;;;;;24.80;12.33;;;4.40;99.90;;;;;;4159847;28;20868;-76
2022/11/13 01:02:39;;;;;;;20.80;11.93;;;4.50;99.90;;;;;;4158475;28;20461;-75
2022/11/13 01:04:44;;;;;;;19.90;10.97;;;4.40;99.90;;;;;;4159366;28;20466;-76
2022/11/13 01:06:46;;;;;;;21.10;11.50;;;4.40;99.90;;;;;;4157177;28;20470;-77
2022/11/13 01:08:49;;;;;;;24.50;11.60;;;4.40;99.90;;;;;;4160244;28;20466;-77
2022/11/13 01:10:52;;;;;;;21.33;12.07;;;4.30;99.90;;;;;;4156608;28;20536;-75
2022/11/13 01:12:54;;;;;;;23.17;12.77;;;4.50;99.90;;;;;;4159252;28;20934;-77
2022/11/13 01:14:56;;;;;;;22.50;12.20;;;4.30;99.90;;;;;;4160154;28;20456;-76
2022/11/13 01:16:59;;;;;;;19.30;11.43;;;4.40;99.90;;;;;;4154224;28;21040;-76
2022/11/13 01:19:01;;;;;;;18.03;11.23;;;4.30;99.90;;;;;;4160285;28;20469;-74
2022/11/13 01:21:05;;;;;;;19.43;11.77;;;4.20;99.90;;;;;;4160300;28;20485;-75
2022/11/13 01:23:07;;;;;;;22.90;12.53;;;4.20;99.90;;;;;;4158036;28;20458;-76
2022/11/13 01:25:09;;;;;;;19.63;11.37;;;4.20;99.90;;;;;;4160062;28;20461;-77
2022/11/13 01:27:12;;;;;;;20.17;11.30;;;4.20;99.90;;;;;;4157707;28;20497;-76
2022/11/13 01:29:13;;;;;;;23.23;12.07;;;4.20;99.90;;;;;;4158690;28;20461;-76
2022/11/13 01:31:17;;;;;;;22.40;12.10;;;4.10;99.90;;;;;;4159169;28;20462;-77
2022/11/13 01:33:21;;;;;;;22.23;12.13;;;4.10;99.90;;;;;;4159690;28;20541;-76
2022/11/13 01:35:23;;;;;;;19.90;11.87;;;4.10;99.90;;;;;;4159444;28;20525;-77
2022/11/13 01:37:25;;;;;;;19.83;12.30;;;4.10;99.90;;;;;;4160676;28;20472;-75
2022/11/13 01:39:27;;;;;;;20.73;11.63;;;4.10;99.90;;;;;;4159796;28;20462;-77
2022/11/13 01:41:31;;;;;;;22.10;12.67;;;4.10;99.90;;;;;;4161362;28;20477;-77
2022/11/13 01:43:35;;;;;;;23.37;12.37;;;4.00;99.90;;;;;;4160338;28;20472;-76
2022/11/13 01:46:13;;;;;;;23.47;12.53;;;4.00;99.90;;;;;;4158244;28;20460;-78
2022/11/13 01:48:15;;;;;;;21.73;12.30;;;4.00;99.90;;;;;;4157959;28;20473;-76
2022/11/13 01:50:18;;;;;;;25.20;12.60;;;4.00;99.90;;;;;;4158788;28;20501;-77
2022/11/13 01:52:25;;;;;;;21.43;12.17;;;4.00;99.90;;;;;;4157766;28;21460;-77
2022/11/13 01:54:30;;;;;;;25.23;12.97;;;4.00;99.90;;;;;;4158180;28;20454;-78
2022/11/13 01:56:32;;;;;;;22.67;12.07;;;4.00;99.90;;;;;;4159742;28;20485;-77
2022/11/13 01:58:35;;;;;;;22.93;11.90;;;3.90;99.90;;;;;;4159208;28;20537;-78
2022/11/13 02:00:37;;;;;;;20.63;12.03;;;4.00;99.90;;;;;;4159717;28;20465;-76
2022/11/13 02:02:39;;;;;;;22.03;12.40;;;3.90;99.90;;;;;;4160935;28;20517;-77
2022/11/13 02:04:41;;;;;;;22.93;12.87;;;3.90;99.90;;;;;;4158002;28;20485;-76
2022/11/13 02:06:46;;;;;;;21.47;12.03;;;3.80;99.90;;;;;;4159541;28;20481;-76
2022/11/13 02:08:50;;;;;;;20.37;12.03;;;3.80;99.90;;;;;;4159518;28;20470;-77
2022/11/13 02:10:53;;;;;;;21.37;11.97;;;3.80;99.90;;;;;;4158462;28;20492;-78
2022/11/13 02:12:55;;;;;;;20.17;11.50;;;3.80;99.90;;;;;;4160848;28;20457;-78
2022/11/13 02:14:59;;;;;;;20.43;11.77;;;3.80;99.90;;;;;;4160117;28;20454;-77
2022/11/13 02:17:06;;;;;;;21.77;11.43;;;3.80;99.90;;;;;;4158111;28;20481;-77
2022/11/13 02:19:13;;;;;;;18.83;11.53;;;3.80;99.90;;;;;;4159532;28;20454;-77
2022/11/13 02:21:30;;;;;;;24.00;11.77;;;3.70;99.90;;;;;;4160377;28;20493;-77
2022/11/13 02:23:43;;;;;;;19.73;11.10;;;3.70;99.90;;;;;;4158872;28;20945;-76
2022/11/13 02:25:48;;;;;;;20.53;11.47;;;3.70;99.90;;;;;;4154222;28;20640;-76
2022/11/13 02:27:51;;;;;;;20.83;11.63;;;3.60;99.90;;;;;;4159523;28;20980;-76
2022/11/13 02:29:52;;;;;;;22.03;12.10;;;3.60;99.90;;;;;;4159827;28;20468;-76
2022/11/13 02:31:57;;;;;;;21.90;11.77;;;3.60;99.90;;;;;;4163037;28;20512;-76
2022/11/13 02:34:01;;;;;;;22.23;11.93;;;3.60;99.90;;;;;;4161051;28;20556;-77
2022/11/13 02:36:08;;;;;;;24.63;12.30;;;3.60;99.90;;;;;;4160647;28;21051;-77
2022/11/13 02:38:10;;;;;;;22.60;11.50;;;3.60;99.90;;;;;;4163018;28;20464;-77
2022/11/13 02:40:13;;;;;;;20.50;11.57;;;3.50;99.90;;;;;;4166234;28;20450;-76
2022/11/13 02:42:16;;;;;;;19.07;11.17;;;3.60;99.90;;;;;;4164210;28;20499;-77
2022/11/13 02:44:18;;;;;;;20.70;12.10;;;3.50;99.90;;;;;;4168669;28;20855;-76
2022/11/13 02:46:20;;;;;;;21.80;11.80;;;3.50;99.90;;;;;;4166450;28;21151;-76
2022/11/13 02:48:22;;;;;;;21.10;11.30;;;3.40;99.90;;;;;;4166416;28;20477;-76
2022/11/13 02:50:24;;;;;;;22.40;11.43;;;3.40;99.90;;;;;;4166697;28;21045;-76
2022/11/13 02:52:26;;;;;;;21.80;11.80;;;3.40;99.90;;;;;;4166397;28;20503;-77
2022/11/13 02:54:28;;;;;;;20.87;11.97;;;3.40;99.90;;;;;;4163496;28;20457;-77
2022/11/13 02:56:30;;;;;;;23.17;13.00;;;3.40;99.90;;;;;;4163475;28;20484;-76
2022/11/13 02:58:34;;;;;;;22.83;12.30;;;3.40;99.90;;;;;;4162660;28;20465;-75
2022/11/13 03:00:35;;;;;;;22.30;12.53;;;3.40;99.90;;;;;;4162819;28;20469;-77
2022/11/13 03:02:37;;;;;;;21.63;11.83;;;3.40;99.90;;;;;;4161291;28;20799;-77
2022/11/13 03:04:39;;;;;;;21.47;11.97;;;3.30;99.90;;;;;;4163224;28;20469;-77
2022/11/13 03:06:41;;;;;;;20.07;12.00;;;3.30;99.90;;;;;;4160534;28;20496;-77
2022/11/13 03:08:43;;;;;;;22.97;12.03;;;3.40;99.90;;;;;;4162300;28;20476;-77
2022/11/13 03:10:45;;;;;;;20.40;11.77;;;3.30;99.90;;;;;;4155317;28;20534;-76
2022/11/13 03:12:47;;;;;;;19.80;11.53;;;3.30;99.90;;;;;;4163240;28;20461;-77
2022/11/13 03:14:50;;;;;;;22.17;12.53;;;3.20;99.90;;;;;;4163068;28;20453;-77
2022/11/13 03:16:52;;;;;;;19.63;11.30;;;3.30;99.90;;;;;;4161919;28;20493;-76
2022/11/13 03:18:55;;;;;;;22.43;12.23;;;3.30;99.90;;;;;;4163259;28;20954;-77
2022/11/13 03:20:57;;;;;;;20.00;11.10;;;3.30;99.90;;;;;;4162624;28;20544;-76
2022/11/13 03:22:59;;;;;;;17.93;10.53;;;3.20;99.90;;;;;;4160364;28;20544;-76
2022/11/13 03:25:01;;;;;;;22.53;11.40;;;3.20;99.90;;;;;;4160691;28;21184;-77
2022/11/13 03:27:03;;;;;;;19.63;10.93;;;3.20;99.90;;;;;;4162190;28;21052;-77
2022/11/13 03:29:05;;;;;;;19.83;10.60;;;3.20;99.90;;;;;;4161053;28;20458;-77
2022/11/13 03:31:09;;;;;;;18.90;10.80;;;3.20;99.90;;;;;;4161653;28;20503;-77
2022/11/13 03:33:11;;;;;;;20.90;10.63;;;3.20;99.90;;;;;;4158041;28;20525;-76
2022/11/13 03:35:13;;;;;;;22.23;11.53;;;3.10;99.90;;;;;;4162480;28;20454;-77
2022/11/13 03:37:15;;;;;;;21.80;11.83;;;3.10;99.90;;;;;;4155890;28;20580;-77
2022/11/13 03:39:17;;;;;;;19.87;10.80;;;3.10;99.90;;;;;;4153346;28;21021;-74
2022/11/13 03:41:19;;;;;;;18.37;10.87;;;3.10;99.90;;;;;;4163566;28;20544;-74
2022/11/13 03:43:23;;;;;;;18.83;10.50;;;3.10;99.90;;;;;;4161208;28;20953;-74
2022/11/13 03:45:25;;;;;;;17.13;9.67;;;3.00;99.90;;;;;;4161951;28;20493;-74
2022/11/13 03:47:28;;;;;;;19.43;10.37;;;3.00;99.90;;;;;;4160883;28;20473;-74
2022/11/13 03:49:30;;;;;;;20.87;10.83;;;3.00;99.90;;;;;;4161368;28;20449;-76
2022/11/13 03:51:32;;;;;;;18.47;10.20;;;3.00;99.90;;;;;;4158839;28;20972;-76
2022/11/13 03:53:34;;;;;;;21.63;10.53;;;2.90;99.90;;;;;;4151680;28;20496;-74
2022/11/13 03:55:36;;;;;;;21.43;10.50;;;2.90;99.90;;;;;;4160082;28;20457;-75
2022/11/13 03:57:38;;;;;;;22.00;11.33;;;2.90;99.90;;;;;;4161758;28;20564;-75
2022/11/13 03:59:40;;;;;;;20.37;10.57;;;2.90;99.90;;;;;;4162698;28;20462;-74
2022/11/13 04:01:41;;;;;;;21.83;11.70;;;2.90;99.90;;;;;;4161568;28;20450;-74
2022/11/13 04:03:45;;;;;;;21.67;11.50;;;2.90;99.90;;;;;;4162562;28;20489;-74
2022/11/13 04:05:48;;;;;;;20.63;11.40;;;2.90;99.90;;;;;;4160207;28;20532;-75
2022/11/13 04:07:50;;;;;;;19.37;11.13;;;2.90;99.90;;;;;;4162360;28;20476;-74
2022/11/13 04:09:52;;;;;;;19.03;10.13;;;2.90;99.90;;;;;;4161626;28;20470;-75
2022/11/13 04:11:54;;;;;;;20.33;10.53;;;2.90;99.90;;;;;;4157544;28;20453;-74
2022/11/13 04:13:56;;;;;;;18.77;10.13;;;2.90;99.90;;;;;;4161426;28;20450;-76
2022/11/13 04:15:58;;;;;;;18.10;9.97;;;2.90;99.90;;;;;;4161030;28;20468;-74
2022/11/13 04:18:00;;;;;;;17.33;9.50;;;2.80;99.90;;;;;;4160517;28;20518;-75
2022/11/13 04:20:04;;;;;;;18.83;9.70;;;2.80;99.90;;;;;;4160385;28;20519;-74
2022/11/13 04:22:08;;;;;;;16.07;9.20;;;2.80;99.90;;;;;;4161794;28;20454;-76
2022/11/13 04:24:10;;;;;;;17.13;9.67;;;2.80;99.90;;;;;;4161573;28;21292;-75
2022/11/13 04:26:12;;;;;;;18.40;9.67;;;2.80;99.90;;;;;;4162051;28;20469;-75
2022/11/13 04:28:14;;;;;;;17.93;9.10;;;2.80;99.90;;;;;;4163487;28;20501;-75
2022/11/13 04:30:16;;;;;;;17.63;9.33;;;2.80;99.90;;;;;;4158128;28;20453;-75
2022/11/13 04:32:18;;;;;;;19.93;10.97;;;2.80;99.90;;;;;;4161467;28;20503;-75
2022/11/13 04:34:20;;;;;;;19.80;10.23;;;2.80;99.90;;;;;;4156680;28;20886;-75
2022/11/13 04:36:23;;;;;;;18.20;9.67;;;2.80;99.90;;;;;;4158717;28;20504;-76
2022/11/13 04:38:25;;;;;;;18.80;9.70;;;2.80;99.90;;;;;;4160847;28;20548;-75
2022/11/13 04:40:26;;;;;;;15.53;9.30;;;2.80;99.90;;;;;;4162254;28;21059;-75
2022/11/13 04:44:51;;;;;;;18.00;9.73;;;2.90;99.90;;;;;;4161642;28;20487;-75
2022/11/13 04:46:52;;;;;;;18.03;10.47;;;2.90;99.90;;;;;;4159419;28;20539;-75
2022/11/13 04:48:54;;;;;;;17.50;9.10;;;2.90;99.90;;;;;;4159626;28;20546;-75
2022/11/13 04:50:56;;;;;;;18.53;10.40;;;2.90;99.90;;;;;;4160396;28;20492;-76
2022/11/13 04:53:02;;;;;;;17.73;9.47;;;2.90;99.90;;;;;;4159412;28;20468;-76
2022/11/13 04:55:05;;;;;;;15.80;9.30;;;2.90;99.90;;;;;;4158562;28;20511;-75
2022/11/13 04:57:07;;;;;;;17.97;9.87;;;3.00;99.90;;;;;;4159369;28;20553;-75
2022/11/13 04:59:09;;;;;;;17.00;9.37;;;3.00;99.90;;;;;;4156710;28;20519;-78
2022/11/13 05:01:11;;;;;;;18.23;9.80;;;3.00;99.90;;;;;;4156242;28;20917;-77
2022/11/13 05:03:13;;;;;;;16.77;9.40;;;3.00;99.90;;;;;;4159604;28;20529;-77
2022/11/13 05:05:15;;;;;;;16.37;9.50;;;3.00;99.90;;;;;;4158149;28;20891;-77
2022/11/13 05:07:17;;;;;;;16.47;9.10;;;3.00;99.90;;;;;;4159749;28;20477;-77
2022/11/13 05:09:20;;;;;;;16.63;9.30;;;3.10;99.90;;;;;;4155837;28;20462;-74
2022/11/13 05:11:22;;;;;;;16.43;9.50;;;3.10;99.90;;;;;;4155576;28;20464;-75
2022/11/13 05:13:24;;;;;;;15.87;9.07;;;3.10;99.90;;;;;;4161971;28;20456;-74
2022/11/13 05:15:26;;;;;;;18.60;9.67;;;3.10;99.90;;;;;;4161808;28;20547;-75
2022/11/13 05:17:28;;;;;;;16.57;9.03;;;3.10;99.90;;;;;;4156545;28;20518;-74
2022/11/13 05:19:30;;;;;;;16.83;8.97;;;3.10;99.90;;;;;;4163531;28;20481;-75
2022/11/13 05:21:32;;;;;;;14.27;8.30;;;3.10;99.90;;;;;;4162023;28;20877;-74
2022/11/13 05:23:35;;;;;;;16.67;9.03;;;3.10;99.90;;;;;;4162737;28;20868;-75
2022/11/13 05:25:38;;;;;;;15.90;8.87;;;3.00;99.90;;;;;;4158522;28;20495;-76
2022/11/13 05:27:40;;;;;;;13.73;8.63;;;3.00;99.90;;;;;;4156555;28;20581;-77
2022/11/13 05:29:42;;;;;;;15.07;8.80;;;3.00;99.90;;;;;;4157295;28;20540;-77
2022/11/13 05:31:44;;;;;;;15.30;9.53;;;3.00;99.90;;;;;;4157663;28;20897;-77
2022/11/13 05:33:46;;;;;;;15.10;8.30;;;3.00;99.90;;;;;;4158176;28;20548;-77
2022/11/13 05:35:48;;;;;;;14.93;8.43;;;3.10;99.90;;;;;;4157434;28;20500;-77
2022/11/13 05:37:50;;;;;;;13.83;8.47;;;3.00;99.90;;;;;;4158355;28;21255;-77
2022/11/13 05:39:52;;;;;;;15.47;8.70;;;3.00;99.90;;;;;;4160795;28;20547;-77
2022/11/13 05:41:55;;;;;;;15.03;8.50;;;3.00;99.90;;;;;;4160824;28;20501;-76
2022/11/13 05:43:58;;;;;;;15.23;8.73;;;3.10;99.90;;;;;;4161131;28;20545;-77
2022/11/13 05:46:01;;;;;;;13.70;8.20;;;3.10;99.90;;;;;;4158771;28;20552;-77
2022/11/13 05:48:03;;;;;;;15.90;9.27;;;3.10;99.90;;;;;;4147250;28;20494;-76
2022/11/13 05:50:06;;;;;;;14.43;8.37;;;3.00;99.90;;;;;;4159907;28;20516;-77
2022/11/13 05:52:08;;;;;;;17.27;9.07;;;3.10;99.90;;;;;;4157247;28;20973;-77
2022/11/13 05:54:10;;;;;;;14.03;8.40;;;3.00;99.90;;;;;;4156273;28;20458;-76
2022/11/13 05:56:14;;;;;;;16.40;9.23;;;3.00;99.90;;;;;;4155382;28;20457;-76
2022/11/13 05:58:18;;;;;;;12.87;7.83;;;3.00;99.90;;;;;;4156915;28;20501;-76
2022/11/13 06:00:21;;;;;;;16.07;9.10;;;3.00;99.90;;;;;;4158691;28;20458;-76
2022/11/13 06:02:23;;;;;;;14.83;7.97;;;2.90;99.90;;;;;;4156848;28;20457;-77
2022/11/13 06:04:25;;;;;;;16.47;8.87;;;3.00;99.90;;;;;;4156052;28;20550;-75
2022/11/13 06:06:28;;;;;;;15.97;8.50;;;2.90;99.90;;;;;;4156575;28;20493;-76
2022/11/13 06:08:30;;;;;;;15.23;8.73;;;2.90;99.90;;;;;;4156754;28;20474;-76
2022/11/13 06:10:32;;;;;;;14.10;8.27;;;2.90;99.90;;;;;;4159460;28;20554;-75
2022/11/13 06:12:34;;;;;;;14.73;7.87;;;2.90;99.90;;;;;;4162652;28;20465;-76
2022/11/13 06:14:37;;;;;;;14.37;7.77;;;2.90;99.90;;;;;;4162063;28;20453;-77
2022/11/13 06:16:39;;;;;;;17.27;8.67;;;2.80;99.90;;;;;;4159873;28;20560;-76
2022/11/13 06:18:43;;;;;;;13.63;7.77;;;2.80;99.90;;;;;;4162362;28;20453;-77
2022/11/13 06:20:45;;;;;;;15.07;8.43;;;2.80;99.90;;;;;;4163226;28;20452;-77
2022/11/13 06:22:47;;;;;;;14.63;7.97;;;2.80;99.90;;;;;;4157589;28;21048;-76
2022/11/13 06:24:49;;;;;;;15.10;7.90;;;2.80;99.90;;;;;;4161978;28;20461;-77
2022/11/13 06:26:52;;;;;;;14.60;7.97;;;2.80;99.90;;;;;;4162266;28;20556;-76
2022/11/13 06:28:54;;;;;;;15.67;8.20;;;2.70;99.90;;;;;;4161370;28;21302;-77
2022/11/13 06:31:03;;;;;;;14.10;8.20;;;2.70;99.90;;;;;;4162142;28;20876;-76
2022/11/13 06:33:05;;;;;;;14.20;7.83;;;2.70;99.90;;;;;;4157808;28;20471;-76
2022/11/13 06:35:08;;;;;;;13.60;7.90;;;2.60;99.90;;;;;;4162354;28;20550;-76
2022/11/13 06:37:10;;;;;;;13.40;8.20;;;2.60;99.90;;;;;;4160116;28;21042;-76
2022/11/13 06:39:12;;;;;;;16.07;8.20;;;2.50;99.90;;;;;;4162471;28;20456;-75
2022/11/13 06:41:15;;;;;;;15.20;7.90;;;2.50;99.90;;;;;;4163518;28;20472;-75
2022/11/13 06:43:17;;;;;;;14.50;7.60;;;2.50;99.90;;;;;;4161029;28;20522;-76
2022/11/13 06:45:19;;;;;;;13.33;7.50;;;2.50;99.90;;;;;;4162156;28;20479;-75
2022/11/13 06:47:22;;;;;;;13.87;7.70;;;2.50;99.90;;;;;;4161590;28;20568;-76
2022/11/13 06:49:24;;;;;;;14.63;7.90;;;2.50;99.90;;;;;;4162526;28;20573;-77
2022/11/13 06:51:28;;;;;;;14.13;6.97;;;2.50;99.90;;;;;;4160353;28;20492;-76
2022/11/13 06:53:30;;;;;;;14.03;8.37;;;2.50;99.90;;;;;;4161317;28;20449;-76
2022/11/13 06:55:32;;;;;;;11.83;7.27;;;2.50;99.90;;;;;;4161823;28;20547;-76
2022/11/13 06:57:34;;;;;;;12.77;7.10;;;2.50;99.90;;;;;;4162642;28;20493;-76
2022/11/13 06:59:36;;;;;;;14.40;7.77;;;2.50;99.90;;;;;;4163144;28;20898;-75
2022/11/13 07:01:38;;;;;;;13.37;6.87;;;2.50;99.90;;;;;;4163611;28;20467;-75
2022/11/13 07:03:42;;;;;;;15.00;7.43;;;2.50;99.90;;;;;;4161380;28;20544;-75
2022/11/13 07:05:44;;;;;;;14.30;7.50;;;2.50;99.90;;;;;;4161244;28;21059;-76
2022/11/13 07:07:46;;;;;;;16.13;7.73;;;2.50;99.90;;;;;;4159201;28;20554;-75
2022/11/13 07:09:48;;;;;;;12.30;6.80;;;2.50;99.90;;;;;;4161584;28;20518;-75
2022/11/13 07:11:50;;;;;;;14.77;7.70;;;2.60;99.90;;;;;;4159949;28;20489;-74
2022/11/13 07:13:52;;;;;;;13.77;7.53;;;2.60;99.90;;;;;;4162186;28;20854;-77
2022/11/13 07:15:54;;;;;;;15.30;8.20;;;2.60;99.90;;;;;;4161323;28;20584;-76
2022/11/13 07:17:59;;;;;;;17.17;9.17;;;2.60;99.90;;;;;;4161171;28;20567;-74
2022/11/13 07:20:03;;;;;;;43.53;20.80;;;2.60;99.90;;;;;;4159720;28;20498;-74
2022/11/13 07:22:05;;;;;;;52.83;25.63;;;2.70;99.90;;;;;;4151076;28;20504;-75
2022/11/13 07:24:07;;;;;;;45.57;21.00;;;2.70;99.90;;;;;;4162537;28;20473;-76
2022/11/13 07:26:10;;;;;;;36.80;18.30;;;2.70;99.90;;;;;;4161299;28;20441;-76
2022/11/13 07:28:12;;;;;;;30.77;14.77;;;2.70;99.90;;;;;;4162604;28;20549;-76
2022/11/13 07:30:14;;;;;;;26.90;13.00;;;2.70;99.90;;;;;;4158189;28;20474;-76
2022/11/13 07:32:15;;;;;;;20.73;11.90;;;2.70;99.90;;;;;;4158335;28;20476;-76
2022/11/13 07:34:17;;;;;;;19.47;10.30;;;2.80;99.90;;;;;;4161671;28;20556;-76
2022/11/13 07:36:23;;;;;;;17.73;9.30;;;2.80;99.90;;;;;;4160311;28;20493;-76
2022/11/13 07:38:25;;;;;;;17.50;9.13;;;2.80;99.90;;;;;;4162441;28;20492;-76
2022/11/13 07:40:27;;;;;;;16.30;9.10;;;2.80;99.90;;;;;;4160206;28;20508;-76
2022/11/13 07:42:29;;;;;;;17.27;8.23;;;2.90;99.90;;;;;;4159593;28;20463;-75
2022/11/13 07:44:31;;;;;;;15.90;8.63;;;2.90;99.90;;;;;;4162669;28;20492;-75
2022/11/13 07:46:33;;;;;;;17.27;9.33;;;2.90;99.90;;;;;;4153882;28;20545;-76
2022/11/13 07:48:35;;;;;;;19.93;10.60;;;2.90;99.90;;;;;;4159636;28;20544;-75
2022/11/13 07:50:38;;;;;;;19.00;9.97;;;3.00;99.90;;;;;;4160658;28;20492;-75
2022/11/13 07:52:41;;;;;;;17.63;9.33;;;3.00;99.90;;;;;;4160125;28;20449;-76
2022/11/13 07:54:43;;;;;;;17.03;9.10;;;3.00;99.90;;;;;;4160800;28;20524;-76
2022/11/13 07:56:46;;;;;;;17.57;8.93;;;3.10;99.90;;;;;;4160115;28;20516;-76
2022/11/13 07:58:48;;;;;;;16.97;8.20;;;3.10;99.90;;;;;;4161384;28;20517;-74
2022/11/13 08:00:50;;;;;;;15.60;7.80;;;3.10;99.90;;;;;;4176634;28;21049;-74
2022/11/13 08:02:52;;;;;;;15.90;8.53;;;3.20;99.90;;;;;;4156173;28;20509;-75
2022/11/13 08:04:54;;;;;;;14.27;7.90;;;3.20;99.90;;;;;;4158258;28;20461;-74
2022/11/13 08:06:56;;;;;;;15.30;8.80;;;3.30;99.90;;;;;;4158850;28;21059;-75
2022/11/13 08:08:59;;;;;;;14.60;8.17;;;3.30;99.90;;;;;;4161661;28;20469;-75
2022/11/13 08:11:05;;;;;;;15.73;8.57;;;3.30;99.90;;;;;;4160412;28;20453;-74
2022/11/13 08:13:08;;;;;;;15.60;8.60;;;3.40;99.90;;;;;;4153745;28;20450;-74
2022/11/13 08:15:11;;;;;;;13.03;7.30;;;3.40;99.90;;;;;;4155996;28;20622;-74
2022/11/13 08:17:13;;;;;;;14.90;8.37;;;3.50;99.90;;;;;;4159806;28;20473;-74
2022/11/13 08:19:15;;;;;;;17.17;8.37;;;3.50;99.90;;;;;;4157805;28;20454;-74
2022/11/13 08:21:17;;;;;;;17.10;8.90;;;3.60;99.90;;;;;;4161585;28;20486;-74
2022/11/13 08:23:20;;;;;;;16.27;8.67;;;3.60;99.90;;;;;;4161021;28;20500;-74
2022/11/13 08:25:23;;;;;;;16.13;8.27;;;3.70;99.90;;;;;;4153403;28;21396;-74
2022/11/13 08:27:25;;;;;;;17.30;9.20;;;3.70;99.90;;;;;;4160178;28;20474;-74
2022/11/13 08:29:27;;;;;;;14.97;8.47;;;3.70;99.90;;;;;;4156920;28;20472;-74
2022/11/13 08:31:29;;;;;;;15.30;8.57;;;3.80;99.90;;;;;;4158392;28;20496;-76
2022/11/13 08:33:33;;;;;;;14.63;7.53;;;3.80;99.90;;;;;;4158823;28;20563;-74
2022/11/13 08:35:35;;;;;;;15.77;8.57;;;3.90;99.90;;;;;;4153889;28;20550;-74
2022/11/13 08:37:37;;;;;;;14.30;8.00;;;3.90;99.90;;;;;;4156100;28;20560;-74
2022/11/13 08:39:39;;;;;;;15.70;8.40;;;3.90;99.90;;;;;;4157214;28;20458;-73
2022/11/13 08:41:42;;;;;;;15.87;7.37;;;4.00;99.90;;;;;;4156456;28;20523;-76
2022/11/13 08:43:44;;;;;;;16.23;8.70;;;4.00;99.90;;;;;;4157343;28;20450;-76
2022/11/13 08:45:46;;;;;;;17.57;9.40;;;4.00;99.90;;;;;;4157698;28;20453;-75
2022/11/13 08:47:48;;;;;;;16.60;8.60;;;4.10;99.90;;;;;;4156822;28;20469;-76
2022/11/13 08:49:50;;;;;;;18.70;8.90;;;4.10;99.90;;;;;;4157310;28;20965;-76
2022/11/13 08:51:52;;;;;;;16.07;8.77;;;4.10;99.90;;;;;;4155660;28;20458;-75
2022/11/13 08:53:54;;;;;;;20.50;8.87;;;4.20;99.90;;;;;;4158060;28;20477;-75
2022/11/13 08:56:00;;;;;;;18.93;9.57;;;4.20;99.90;;;;;;4154811;28;20501;-74
2022/11/13 08:58:04;;;;;;;20.37;9.60;;;4.40;99.90;;;;;;4157754;28;20485;-75
2022/11/13 09:00:07;;;;;;;18.73;9.73;;;4.30;99.90;;;;;;4155924;28;20457;-76
2022/11/13 09:02:12;;;;;;;20.30;10.13;;;4.30;99.90;;;;;;4158764;28;20876;-75
2022/11/13 09:04:13;;;;;;;18.73;10.10;;;4.50;99.90;;;;;;4155321;28;20447;-75
2022/11/13 09:06:15;;;;;;;20.83;10.10;;;4.40;99.90;;;;;;4155700;28;20902;-75
2022/11/13 09:08:17;;;;;;;22.10;10.33;;;4.50;99.90;;;;;;4158110;28;20512;-75
2022/11/13 09:10:20;;;;;;;22.03;10.57;;;4.50;99.90;;;;;;4160089;28;20462;-76
2022/11/13 09:12:21;;;;;;;20.03;10.00;;;4.50;99.90;;;;;;4159954;28;20544;-75
2022/11/13 09:14:26;;;;;;;22.07;10.87;;;4.60;99.90;;;;;;4160194;28;20910;-76
2022/11/13 09:16:28;;;;;;;20.90;10.40;;;4.60;99.90;;;;;;4156840;28;21068;-76
2022/11/13 09:18:30;;;;;;;21.03;10.70;;;4.60;99.90;;;;;;4160037;28;20584;-76
2022/11/13 09:20:33;;;;;;;21.40;11.23;;;4.80;99.90;;;;;;4157444;28;20617;-74
2022/11/13 09:22:35;;;;;;;22.17;10.93;;;4.70;99.90;;;;;;4159330;28;20500;-74
2022/11/13 09:24:37;;;;;;;26.40;12.23;;;5.10;99.90;;;;;;4159899;28;20484;-73
2022/11/13 09:26:39;;;;;;;23.33;10.90;;;4.80;99.90;;;;;;4159308;28;20541;-74
2022/11/13 09:28:42;;;;;;;25.03;11.43;;;4.90;99.90;;;;;;4158405;28;20461;-75
2022/11/13 09:30:45;;;;;;;23.70;12.43;;;5.00;99.90;;;;;;4158634;28;20454;-76
2022/11/13 09:32:47;;;;;;;23.50;11.63;;;5.00;99.90;;;;;;4158315;28;20450;-74
2022/11/13 09:34:52;;;;;;;24.33;11.93;;;5.10;99.90;;;;;;4158671;28;20546;-74
2022/11/13 09:36:54;;;;;;;28.07;13.23;;;5.10;99.90;;;;;;4154796;28;21035;-74
2022/11/13 09:38:56;;;;;;;27.23;12.80;;;5.20;99.90;;;;;;4158254;28;21010;-73
2022/11/13 09:41:02;;;;;;;28.23;13.93;;;5.30;99.90;;;;;;4160522;28;20510;-74
2022/11/13 09:43:07;;;;;;;28.93;14.03;;;5.30;99.90;;;;;;4159532;28;21021;-74
2022/11/13 09:45:14;;;;;;;25.20;12.67;;;5.50;99.90;;;;;;4159201;28;20446;-74
2022/11/13 09:47:23;;;;;;;25.77;12.63;;;5.50;99.90;;;;;;4158271;28;20474;-73
2022/11/13 09:49:28;;;;;;;26.10;13.33;;;5.60;99.90;;;;;;4158390;28;20454;-74
2022/11/13 09:51:35;;;;;;;23.83;12.00;;;5.70;99.90;;;;;;4159287;28;20451;-74
2022/11/13 09:53:38;;;;;;;24.97;13.33;;;5.80;99.90;;;;;;4156605;28;20467;-75
2022/11/13 09:55:53;;;;;;;25.37;13.53;;;5.80;99.90;;;;;;4159761;28;20455;-74
2022/11/13 09:58:05;;;;;;;24.07;13.10;;;5.90;99.90;;;;;;4159065;28;21163;-74
2022/11/13 10:00:12;;;;;;;24.80;11.90;;;5.90;99.90;;;;;;4160358;28;20460;-75
2022/11/13 10:02:21;;;;;;;23.43;12.20;;;6.00;99.90;;;;;;4158953;28;20563;-76
2022/11/13 10:04:31;;;;;;;22.37;12.20;;;6.10;99.90;;;;;;4159271;28;20537;-76
2022/11/13 10:06:47;;;;;;;25.67;13.63;;;6.10;99.90;;;;;;4155574;28;20460;-76
2022/11/13 10:08:55;;;;;;;26.00;13.10;;;6.20;99.90;;;;;;4159739;28;20510;-74
2022/11/13 10:11:07;;;;;;;22.90;12.20;;;6.30;99.90;;;;;;4158913;28;20554;-75
2022/11/13 10:13:14;;;;;;;24.97;12.47;;;6.40;99.90;;;;;;4159620;28;20456;-75
2022/11/13 10:15:17;;;;;;;23.73;12.73;;;6.40;99.90;;;;;;4160574;28;20499;-76
2022/11/13 10:17:28;;;;;;;26.53;13.77;;;6.50;99.90;;;;;;4154355;28;21066;-76
2022/11/13 10:19:37;;;;;;;38.23;17.63;;;6.60;99.90;;;;;;4156803;28;20492;-76
2022/11/13 10:21:43;;;;;;;34.40;17.13;;;6.70;99.90;;;;;;4152817;28;20478;-76
2022/11/13 10:23:51;;;;;;;36.67;17.47;;;6.70;99.90;;;;;;4159201;28;20456;-76
2022/11/13 10:25:57;;;;;;;37.17;17.20;;;6.70;99.90;;;;;;4155993;28;20468;-76
2022/11/13 10:28:00;;;;;;;33.43;16.17;;;6.70;99.90;;;;;;4157941;28;20493;-75
2022/11/13 10:30:03;;;;;;;33.00;16.17;;;6.70;99.90;;;;;;4160147;28;20936;-75
2022/11/13 10:32:20;;;;;;;28.60;14.87;;;6.80;99.90;;;;;;4158895;28;20587;-76
2022/11/13 10:34:23;;;;;;;28.33;14.27;;;6.90;99.90;;;;;;4158324;28;21148;-75
2022/11/13 10:36:35;;;;;;;24.83;13.80;;;7.00;99.90;;;;;;4157645;28;21006;-76
2022/11/13 10:38:43;;;;;;;25.50;13.57;;;7.10;99.90;;;;;;4159729;28;21034;-76